sensor_id;sensor_type;location;lat;lon;timestamp;P1;durP1;ratioP1;P2;durP2;ratioP2
34212;SDS011;20477;51.390;8.102;2022-07-12T00:01:45;3.88;;;1.58;;
34212;SDS011;20477;51.390;8.102;2022-07-12T00:04:16;3.25;;;1.20;;
34212;SDS011;20477;51.390;8.102;2022-07-12T00:06:44;3.10;;;1.20;;
34212;SDS011;20477;51.390;8.102;2022-07-12T00:09:17;1.55;;;1.20;;
34212;SDS011;20477;51.390;8.102;2022-07-12T00:11:44;1.45;;;1.17;;
34212;SDS011;20477;51.390;8.102;2022-07-12T00:14:11;3.45;;;1.10;;
34212;SDS011;20477;51.390;8.102;2022-07-12T00:16:39;6.18;;;1.20;;
34212;SDS011;20477;51.390;8.102;2022-07-12T00:19:11;1.30;;;1.13;;
34212;SDS011;20477;51.390;8.102;2022-07-12T00:21:39;7.57;;;1.30;;
34212;SDS011;20477;51.390;8.102;2022-07-12T00:24:06;3.28;;;1.10;;
34212;SDS011;20477;51.390;8.102;2022-07-12T00:26:40;2.75;;;1.30;;
34212;SDS011;20477;51.390;8.102;2022-07-12T00:29:13;2.78;;;1.55;;
34212;SDS011;20477;51.390;8.102;2022-07-12T00:31:40;2.63;;;1.30;;
34212;SDS011;20477;51.390;8.102;2022-07-12T00:34:21;3.58;;;1.27;;
34212;SDS011;20477;51.390;8.102;2022-07-12T00:36:48;2.25;;;1.30;;
34212;SDS011;20477;51.390;8.102;2022-07-12T00:39:15;1.23;;;1.00;;
34212;SDS011;20477;51.390;8.102;2022-07-12T00:41:49;2.85;;;1.25;;
34212;SDS011;20477;51.390;8.102;2022-07-12T00:44:19;3.25;;;1.20;;
34212;SDS011;20477;51.390;8.102;2022-07-12T00:46:50;2.58;;;1.30;;
34212;SDS011;20477;51.390;8.102;2022-07-12T00:49:19;3.53;;;1.40;;
34212;SDS011;20477;51.390;8.102;2022-07-12T00:51:48;4.63;;;1.50;;
34212;SDS011;20477;51.390;8.102;2022-07-12T00:54:15;6.25;;;1.10;;
34212;SDS011;20477;51.390;8.102;2022-07-12T00:56:45;9.27;;;1.65;;
34212;SDS011;20477;51.390;8.102;2022-07-12T00:59:15;3.80;;;1.10;;
34212;SDS011;20477;51.390;8.102;2022-07-12T01:01:44;2.08;;;1.35;;
34212;SDS011;20477;51.390;8.102;2022-07-12T01:04:12;4.47;;;1.50;;
34212;SDS011;20477;51.390;8.102;2022-07-12T01:06:39;4.95;;;1.70;;
34212;SDS011;20477;51.390;8.102;2022-07-12T01:09:08;3.08;;;1.30;;
34212;SDS011;20477;51.390;8.102;2022-07-12T01:11:39;3.38;;;1.30;;
34212;SDS011;20477;51.390;8.102;2022-07-12T01:14:09;3.53;;;1.40;;
34212;SDS011;20477;51.390;8.102;2022-07-12T01:16:39;2.58;;;1.10;;
34212;SDS011;20477;51.390;8.102;2022-07-12T01:19:07;2.25;;;1.10;;
34212;SDS011;20477;51.390;8.102;2022-07-12T01:21:37;11.30;;;2.38;;
34212;SDS011;20477;51.390;8.102;2022-07-12T01:24:05;1.58;;;1.02;;
34212;SDS011;20477;51.390;8.102;2022-07-12T01:26:33;2.08;;;1.27;;
34212;SDS011;20477;51.390;8.102;2022-07-12T01:29:09;4.18;;;1.40;;
34212;SDS011;20477;51.390;8.102;2022-07-12T01:31:44;1.30;;;1.20;;
34212;SDS011;20477;51.390;8.102;2022-07-12T01:34:12;2.38;;;1.10;;
34212;SDS011;20477;51.390;8.102;2022-07-12T01:36:42;1.50;;;1.40;;
34212;SDS011;20477;51.390;8.102;2022-07-12T01:39:19;2.65;;;1.20;;
34212;SDS011;20477;51.390;8.102;2022-07-12T01:41:46;1.58;;;1.27;;
34212;SDS011;20477;51.390;8.102;2022-07-12T01:44:16;10.07;;;1.50;;
34212;SDS011;20477;51.390;8.102;2022-07-12T01:46:49;4.28;;;1.13;;
34212;SDS011;20477;51.390;8.102;2022-07-12T01:49:19;1.85;;;1.13;;
34212;SDS011;20477;51.390;8.102;2022-07-12T01:51:59;4.13;;;1.70;;
34212;SDS011;20477;51.390;8.102;2022-07-12T01:54:29;1.33;;;1.23;;
34212;SDS011;20477;51.390;8.102;2022-07-12T01:56:58;3.53;;;1.45;;
34212;SDS011;20477;51.390;8.102;2022-07-12T01:59:27;1.83;;;1.20;;
34212;SDS011;20477;51.390;8.102;2022-07-12T02:01:56;3.95;;;1.40;;
34212;SDS011;20477;51.390;8.102;2022-07-12T02:04:29;1.50;;;1.40;;
34212;SDS011;20477;51.390;8.102;2022-07-12T02:06:58;2.80;;;1.42;;
34212;SDS011;20477;51.390;8.102;2022-07-12T02:09:28;2.80;;;1.50;;
34212;SDS011;20477;51.390;8.102;2022-07-12T02:11:58;1.40;;;1.30;;
34212;SDS011;20477;51.390;8.102;2022-07-12T02:14:34;4.47;;;1.40;;
34212;SDS011;20477;51.390;8.102;2022-07-12T02:17:03;2.53;;;2.05;;
34212;SDS011;20477;51.390;8.102;2022-07-12T02:19:31;1.45;;;1.35;;
34212;SDS011;20477;51.390;8.102;2022-07-12T02:22:00;3.65;;;1.58;;
34212;SDS011;20477;51.390;8.102;2022-07-12T02:24:27;2.03;;;1.40;;
34212;SDS011;20477;51.390;8.102;2022-07-12T02:27:05;2.58;;;1.55;;
34212;SDS011;20477;51.390;8.102;2022-07-12T02:29:36;3.13;;;1.58;;
34212;SDS011;20477;51.390;8.102;2022-07-12T02:32:03;4.15;;;1.52;;
34212;SDS011;20477;51.390;8.102;2022-07-12T02:34:33;3.35;;;1.65;;
34212;SDS011;20477;51.390;8.102;2022-07-12T02:37:01;1.70;;;1.58;;
34212;SDS011;20477;51.390;8.102;2022-07-12T02:39:31;3.40;;;1.80;;
34212;SDS011;20477;51.390;8.102;2022-07-12T02:42:15;2.15;;;1.95;;
34212;SDS011;20477;51.390;8.102;2022-07-12T02:44:42;5.32;;;2.30;;
34212;SDS011;20477;51.390;8.102;2022-07-12T02:47:18;2.50;;;1.67;;
34212;SDS011;20477;51.390;8.102;2022-07-12T02:49:46;2.67;;;1.77;;
34212;SDS011;20477;51.390;8.102;2022-07-12T02:52:25;3.30;;;1.85;;
34212;SDS011;20477;51.390;8.102;2022-07-12T02:54:53;4.75;;;2.30;;
34212;SDS011;20477;51.390;8.102;2022-07-12T02:57:22;2.55;;;1.90;;
34212;SDS011;20477;51.390;8.102;2022-07-12T02:59:50;2.42;;;1.85;;
34212;SDS011;20477;51.390;8.102;2022-07-12T03:02:17;2.30;;;1.83;;
34212;SDS011;20477;51.390;8.102;2022-07-12T03:04:47;3.20;;;2.28;;
34212;SDS011;20477;51.390;8.102;2022-07-12T03:07:17;1.90;;;1.80;;
34212;SDS011;20477;51.390;8.102;2022-07-12T03:09:44;4.65;;;2.13;;
34212;SDS011;20477;51.390;8.102;2022-07-12T03:12:14;2.53;;;2.05;;
34212;SDS011;20477;51.390;8.102;2022-07-12T03:14:42;4.88;;;2.42;;
34212;SDS011;20477;51.390;8.102;2022-07-12T03:17:14;2.95;;;1.80;;
34212;SDS011;20477;51.390;8.102;2022-07-12T03:19:41;5.72;;;1.88;;
34212;SDS011;20477;51.390;8.102;2022-07-12T03:22:15;4.28;;;2.53;;
34212;SDS011;20477;51.390;8.102;2022-07-12T03:24:45;4.13;;;1.45;;
34212;SDS011;20477;51.390;8.102;2022-07-12T03:27:13;3.50;;;1.42;;
34212;SDS011;20477;51.390;8.102;2022-07-12T03:29:42;2.78;;;1.63;;
34212;SDS011;20477;51.390;8.102;2022-07-12T03:32:11;2.90;;;1.50;;
34212;SDS011;20477;51.390;8.102;2022-07-12T03:34:45;3.65;;;2.17;;
34212;SDS011;20477;51.390;8.102;2022-07-12T03:37:13;3.22;;;1.42;;
34212;SDS011;20477;51.390;8.102;2022-07-12T03:39:42;3.55;;;1.83;;
34212;SDS011;20477;51.390;8.102;2022-07-12T03:42:09;1.52;;;1.30;;
34212;SDS011;20477;51.390;8.102;2022-07-12T03:44:42;5.80;;;2.20;;
34212;SDS011;20477;51.390;8.102;2022-07-12T03:47:11;2.35;;;2.10;;
34212;SDS011;20477;51.390;8.102;2022-07-12T03:49:40;2.50;;;2.30;;
34212;SDS011;20477;51.390;8.102;2022-07-12T03:52:14;5.07;;;2.47;;
34212;SDS011;20477;51.390;8.102;2022-07-12T03:54:41;3.78;;;2.78;;
34212;SDS011;20477;51.390;8.102;2022-07-12T03:57:10;9.07;;;3.33;;
34212;SDS011;20477;51.390;8.102;2022-07-12T03:59:42;3.95;;;3.22;;
34212;SDS011;20477;51.390;8.102;2022-07-12T04:02:11;10.25;;;3.50;;
34212;SDS011;20477;51.390;8.102;2022-07-12T04:04:39;41.78;;;3.65;;
34212;SDS011;20477;51.390;8.102;2022-07-12T04:07:17;37.60;;;4.00;;
34212;SDS011;20477;51.390;8.102;2022-07-12T04:09:52;48.35;;;3.83;;
34212;SDS011;20477;51.390;8.102;2022-07-12T04:12:21;51.70;;;4.55;;
34212;SDS011;20477;51.390;8.102;2022-07-12T04:15:08;93.57;;;5.07;;
34212;SDS011;20477;51.390;8.102;2022-07-12T04:17:58;115.05;;;4.88;;
34212;SDS011;20477;51.390;8.102;2022-07-12T04:20:30;88.18;;;4.80;;
34212;SDS011;20477;51.390;8.102;2022-07-12T04:23:00;63.53;;;4.22;;
34212;SDS011;20477;51.390;8.102;2022-07-12T04:25:45;100.57;;;5.03;;
34212;SDS011;20477;51.390;8.102;2022-07-12T04:28:15;47.67;;;3.95;;
34212;SDS011;20477;51.390;8.102;2022-07-12T04:30:47;47.00;;;4.05;;
34212;SDS011;20477;51.390;8.102;2022-07-12T04:33:19;34.63;;;4.10;;
34212;SDS011;20477;51.390;8.102;2022-07-12T04:35:48;19.95;;;3.67;;
34212;SDS011;20477;51.390;8.102;2022-07-12T04:38:27;48.97;;;3.97;;
34212;SDS011;20477;51.390;8.102;2022-07-12T04:40:58;24.55;;;3.72;;
34212;SDS011;20477;51.390;8.102;2022-07-12T04:43:28;29.60;;;4.07;;
34212;SDS011;20477;51.390;8.102;2022-07-12T04:46:00;25.55;;;3.70;;
34212;SDS011;20477;51.390;8.102;2022-07-12T04:48:35;16.98;;;4.10;;
34212;SDS011;20477;51.390;8.102;2022-07-12T04:51:13;51.65;;;4.47;;
34212;SDS011;20477;51.390;8.102;2022-07-12T04:53:51;23.48;;;3.58;;
34212;SDS011;20477;51.390;8.102;2022-07-12T04:56:28;37.97;;;5.10;;
34212;SDS011;20477;51.390;8.102;2022-07-12T04:58:55;31.30;;;4.75;;
34212;SDS011;20477;51.390;8.102;2022-07-12T05:01:26;32.53;;;4.45;;
34212;SDS011;20477;51.390;8.102;2022-07-12T05:04:04;32.28;;;4.65;;
34212;SDS011;20477;51.390;8.102;2022-07-12T05:06:32;44.72;;;4.72;;
34212;SDS011;20477;51.390;8.102;2022-07-12T05:09:08;24.33;;;4.82;;
34212;SDS011;20477;51.390;8.102;2022-07-12T05:11:39;15.13;;;4.20;;
34212;SDS011;20477;51.390;8.102;2022-07-12T05:14:06;11.20;;;3.80;;
34212;SDS011;20477;51.390;8.102;2022-07-12T05:16:33;10.00;;;4.30;;
34212;SDS011;20477;51.390;8.102;2022-07-12T05:19:05;18.40;;;4.60;;
34212;SDS011;20477;51.390;8.102;2022-07-12T05:21:34;21.77;;;4.40;;
34212;SDS011;20477;51.390;8.102;2022-07-12T05:24:04;16.95;;;5.40;;
34212;SDS011;20477;51.390;8.102;2022-07-12T05:26:31;16.77;;;4.97;;
34212;SDS011;20477;51.390;8.102;2022-07-12T05:29:13;10.93;;;4.82;;
34212;SDS011;20477;51.390;8.102;2022-07-12T05:31:43;17.35;;;4.57;;
34212;SDS011;20477;51.390;8.102;2022-07-12T05:34:16;28.80;;;4.72;;
34212;SDS011;20477;51.390;8.102;2022-07-12T05:36:47;14.20;;;4.75;;
34212;SDS011;20477;51.390;8.102;2022-07-12T05:39:15;8.55;;;4.47;;
34212;SDS011;20477;51.390;8.102;2022-07-12T05:41:42;14.82;;;4.88;;
34212;SDS011;20477;51.390;8.102;2022-07-12T05:44:13;16.35;;;4.72;;
34212;SDS011;20477;51.390;8.102;2022-07-12T05:46:46;13.85;;;5.40;;
34212;SDS011;20477;51.390;8.102;2022-07-12T05:49:17;11.05;;;4.82;;
34212;SDS011;20477;51.390;8.102;2022-07-12T05:51:47;5.65;;;4.88;;
34212;SDS011;20477;51.390;8.102;2022-07-12T05:54:33;11.82;;;4.63;;
34212;SDS011;20477;51.390;8.102;2022-07-12T05:57:09;9.45;;;4.55;;
34212;SDS011;20477;51.390;8.102;2022-07-12T05:59:37;10.27;;;4.72;;
34212;SDS011;20477;51.390;8.102;2022-07-12T06:02:07;5.63;;;4.22;;
34212;SDS011;20477;51.390;8.102;2022-07-12T06:04:37;4.93;;;4.43;;
34212;SDS011;20477;51.390;8.102;2022-07-12T06:07:05;6.43;;;4.68;;
34212;SDS011;20477;51.390;8.102;2022-07-12T06:09:35;4.97;;;4.35;;
34212;SDS011;20477;51.390;8.102;2022-07-12T06:12:09;8.05;;;4.72;;
34212;SDS011;20477;51.390;8.102;2022-07-12T06:14:51;5.70;;;4.47;;
34212;SDS011;20477;51.390;8.102;2022-07-12T06:17:22;5.07;;;4.28;;
34212;SDS011;20477;51.390;8.102;2022-07-12T06:22:42;10.23;;;4.53;;
34212;SDS011;20477;51.390;8.102;2022-07-12T06:25:12;6.22;;;4.38;;
34212;SDS011;20477;51.390;8.102;2022-07-12T06:28:03;4.35;;;3.95;;
34212;SDS011;20477;51.390;8.102;2022-07-12T06:30:31;7.55;;;4.13;;
34212;SDS011;20477;51.390;8.102;2022-07-12T06:33:06;4.25;;;3.85;;
34212;SDS011;20477;51.390;8.102;2022-07-12T06:35:36;4.28;;;3.85;;
34212;SDS011;20477;51.390;8.102;2022-07-12T06:38:32;4.72;;;4.20;;
34212;SDS011;20477;51.390;8.102;2022-07-12T06:41:13;5.40;;;4.38;;
34212;SDS011;20477;51.390;8.102;2022-07-12T06:43:42;6.82;;;4.20;;
34212;SDS011;20477;51.390;8.102;2022-07-12T06:46:37;6.88;;;4.13;;
34212;SDS011;20477;51.390;8.102;2022-07-12T06:49:14;5.30;;;4.40;;
34212;SDS011;20477;51.390;8.102;2022-07-12T06:51:44;6.88;;;4.70;;
34212;SDS011;20477;51.390;8.102;2022-07-12T06:54:35;6.78;;;4.75;;
34212;SDS011;20477;51.390;8.102;2022-07-12T06:57:09;5.50;;;4.38;;
34212;SDS011;20477;51.390;8.102;2022-07-12T06:59:51;7.28;;;4.82;;
34212;SDS011;20477;51.390;8.102;2022-07-12T07:02:27;4.40;;;4.00;;
34212;SDS011;20477;51.390;8.102;2022-07-12T07:04:56;6.43;;;4.13;;
34212;SDS011;20477;51.390;8.102;2022-07-12T07:07:25;6.13;;;4.15;;
34212;SDS011;20477;51.390;8.102;2022-07-12T07:10:04;6.15;;;3.85;;
34212;SDS011;20477;51.390;8.102;2022-07-12T07:12:36;4.97;;;3.92;;
34212;SDS011;20477;51.390;8.102;2022-07-12T07:15:14;8.90;;;3.90;;
34212;SDS011;20477;51.390;8.102;2022-07-12T07:17:47;5.55;;;3.83;;
34212;SDS011;20477;51.390;8.102;2022-07-12T07:20:24;9.52;;;4.15;;
34212;SDS011;20477;51.390;8.102;2022-07-12T07:23:03;6.15;;;3.75;;
34212;SDS011;20477;51.390;8.102;2022-07-12T07:25:47;5.13;;;3.88;;
34212;SDS011;20477;51.390;8.102;2022-07-12T07:28:24;3.83;;;3.40;;
34212;SDS011;20477;51.390;8.102;2022-07-12T07:31:13;5.43;;;3.78;;
34212;SDS011;20477;51.390;8.102;2022-07-12T07:33:43;6.50;;;3.53;;
34212;SDS011;20477;51.390;8.102;2022-07-12T07:36:11;3.33;;;2.83;;
34212;SDS011;20477;51.390;8.102;2022-07-12T07:38:41;6.22;;;3.42;;
34212;SDS011;20477;51.390;8.102;2022-07-12T07:41:19;4.00;;;3.25;;
34212;SDS011;20477;51.390;8.102;2022-07-12T07:43:48;5.88;;;3.08;;
34212;SDS011;20477;51.390;8.102;2022-07-12T07:46:18;2.95;;;2.40;;
34212;SDS011;20477;51.390;8.102;2022-07-12T07:48:55;2.60;;;2.40;;
34212;SDS011;20477;51.390;8.102;2022-07-12T07:51:38;2.88;;;2.30;;
34212;SDS011;20477;51.390;8.102;2022-07-12T07:54:11;2.45;;;2.25;;
34212;SDS011;20477;51.390;8.102;2022-07-12T07:56:52;3.28;;;1.80;;
34212;SDS011;20477;51.390;8.102;2022-07-12T07:59:29;2.47;;;1.73;;
34212;SDS011;20477;51.390;8.102;2022-07-12T08:02:07;1.80;;;1.70;;
34212;SDS011;20477;51.390;8.102;2022-07-12T08:05:10;2.88;;;1.45;;
34212;SDS011;20477;51.390;8.102;2022-07-12T08:07:41;1.65;;;1.40;;
34212;SDS011;20477;51.390;8.102;2022-07-12T08:10:38;2.67;;;1.35;;
34212;SDS011;20477;51.390;8.102;2022-07-12T08:13:05;2.17;;;1.42;;
34212;SDS011;20477;51.390;8.102;2022-07-12T08:15:44;2.30;;;1.58;;
34212;SDS011;20477;51.390;8.102;2022-07-12T08:18:13;2.75;;;0.80;;
34212;SDS011;20477;51.390;8.102;2022-07-12T08:20:42;2.45;;;1.25;;
34212;SDS011;20477;51.390;8.102;2022-07-12T08:23:26;3.90;;;1.33;;
34212;SDS011;20477;51.390;8.102;2022-07-12T08:26:05;2.25;;;1.17;;
34212;SDS011;20477;51.390;8.102;2022-07-12T08:28:36;1.20;;;1.10;;
34212;SDS011;20477;51.390;8.102;2022-07-12T08:31:12;1.98;;;1.02;;
34212;SDS011;20477;51.390;8.102;2022-07-12T08:33:53;1.83;;;0.93;;
34212;SDS011;20477;51.390;8.102;2022-07-12T08:36:23;2.20;;;1.00;;
34212;SDS011;20477;51.390;8.102;2022-07-12T08:39:06;1.75;;;0.90;;
34212;SDS011;20477;51.390;8.102;2022-07-12T08:41:48;4.55;;;0.70;;
34212;SDS011;20477;51.390;8.102;2022-07-12T08:44:21;1.10;;;0.70;;
34212;SDS011;20477;51.390;8.102;2022-07-12T08:46:59;1.85;;;1.00;;
34212;SDS011;20477;51.390;8.102;2022-07-12T08:49:37;1.00;;;0.68;;
34212;SDS011;20477;51.390;8.102;2022-07-12T08:52:25;3.03;;;0.80;;
34212;SDS011;20477;51.390;8.102;2022-07-12T08:54:58;1.40;;;0.55;;
34212;SDS011;20477;51.390;8.102;2022-07-12T08:57:30;0.73;;;0.60;;
34212;SDS011;20477;51.390;8.102;2022-07-12T09:00:16;2.25;;;0.70;;
34212;SDS011;20477;51.390;8.102;2022-07-12T09:02:50;2.22;;;0.60;;
34212;SDS011;20477;51.390;8.102;2022-07-12T09:05:46;1.58;;;0.60;;
34212;SDS011;20477;51.390;8.102;2022-07-12T09:08:17;1.10;;;0.52;;
34212;SDS011;20477;51.390;8.102;2022-07-12T09:10:55;1.48;;;0.32;;
34212;SDS011;20477;51.390;8.102;2022-07-12T09:16:19;0.73;;;0.35;;
34212;SDS011;20477;51.390;8.102;2022-07-12T09:19:14;0.35;;;0.35;;
34212;SDS011;20477;51.390;8.102;2022-07-12T09:24:49;2.60;;;0.40;;
34212;SDS011;20477;51.390;8.102;2022-07-12T09:27:26;0.40;;;0.40;;
34212;SDS011;20477;51.390;8.102;2022-07-12T09:29:53;3.85;;;0.52;;
34212;SDS011;20477;51.390;8.102;2022-07-12T09:32:25;0.47;;;0.40;;
34212;SDS011;20477;51.390;8.102;2022-07-12T09:35:20;0.50;;;0.50;;
34212;SDS011;20477;51.390;8.102;2022-07-12T09:38:39;6.88;;;0.60;;
34212;SDS011;20477;51.390;8.102;2022-07-12T09:41:11;2.70;;;0.50;;
34212;SDS011;20477;51.390;8.102;2022-07-12T09:43:45;2.40;;;0.38;;
34212;SDS011;20477;51.390;8.102;2022-07-12T09:46:16;0.52;;;0.50;;
34212;SDS011;20477;51.390;8.102;2022-07-12T09:49:01;0.43;;;0.30;;
34212;SDS011;20477;51.390;8.102;2022-07-12T09:54:14;1.58;;;0.50;;
34212;SDS011;20477;51.390;8.102;2022-07-12T09:57:03;1.48;;;0.47;;
34212;SDS011;20477;51.390;8.102;2022-07-12T09:59:34;0.50;;;0.30;;
34212;SDS011;20477;51.390;8.102;2022-07-12T10:02:13;3.05;;;0.52;;
34212;SDS011;20477;51.390;8.102;2022-07-12T10:04:55;2.72;;;0.30;;
34212;SDS011;20477;51.390;8.102;2022-07-12T10:07:27;30.95;;;5.13;;
34212;SDS011;20477;51.390;8.102;2022-07-12T10:10:07;1.75;;;0.80;;
34212;SDS011;20477;51.390;8.102;2022-07-12T10:12:57;4.45;;;0.93;;
34212;SDS011;20477;51.390;8.102;2022-07-12T10:15:36;40.35;;;3.83;;
34212;SDS011;20477;51.390;8.102;2022-07-12T10:18:34;5.97;;;1.02;;
34212;SDS011;20477;51.390;8.102;2022-07-12T10:21:17;3.72;;;0.77;;
34212;SDS011;20477;51.390;8.102;2022-07-12T10:23:53;1.17;;;0.70;;
34212;SDS011;20477;51.390;8.102;2022-07-12T10:26:25;57.65;;;7.43;;
34212;SDS011;20477;51.390;8.102;2022-07-12T10:29:05;0.20;;;0.20;;
34212;SDS011;20477;51.390;8.102;2022-07-12T10:31:45;11.98;;;1.95;;
34212;SDS011;20477;51.390;8.102;2022-07-12T10:35:06;9.25;;;1.63;;
34212;SDS011;20477;51.390;8.102;2022-07-12T10:37:39;3.53;;;0.73;;
34212;SDS011;20477;51.390;8.102;2022-07-12T10:45:41;0.45;;;0.38;;
34212;SDS011;20477;51.390;8.102;2022-07-12T11:01:40;0.20;;;0.20;;
34212;SDS011;20477;51.390;8.102;2022-07-12T11:04:22;0.30;;;0.30;;
34212;SDS011;20477;51.390;8.102;2022-07-12T11:07:01;0.93;;;0.40;;
34212;SDS011;20477;51.390;8.102;2022-07-12T11:09:45;0.30;;;0.30;;
34212;SDS011;20477;51.390;8.102;2022-07-12T11:12:17;0.40;;;0.40;;
34212;SDS011;20477;51.390;8.102;2022-07-12T11:14:51;1.33;;;0.30;;
34212;SDS011;20477;51.390;8.102;2022-07-12T11:17:38;3.03;;;0.45;;
34212;SDS011;20477;51.390;8.102;2022-07-12T11:20:32;0.80;;;0.40;;
34212;SDS011;20477;51.390;8.102;2022-07-12T11:23:02;4.35;;;0.40;;
34212;SDS011;20477;51.390;8.102;2022-07-12T11:25:50;1.42;;;0.60;;
34212;SDS011;20477;51.390;8.102;2022-07-12T11:28:23;0.82;;;0.20;;
34212;SDS011;20477;51.390;8.102;2022-07-12T11:30:51;0.30;;;0.30;;
34212;SDS011;20477;51.390;8.102;2022-07-12T11:33:38;0.30;;;0.30;;
34212;SDS011;20477;51.390;8.102;2022-07-12T11:36:10;0.85;;;0.40;;
34212;SDS011;20477;51.390;8.102;2022-07-12T11:38:41;0.68;;;0.55;;
34212;SDS011;20477;51.390;8.102;2022-07-12T11:41:12;1.00;;;0.40;;
34212;SDS011;20477;51.390;8.102;2022-07-12T11:43:42;0.60;;;0.28;;
34212;SDS011;20477;51.390;8.102;2022-07-12T11:46:20;3.10;;;0.73;;
34212;SDS011;20477;51.390;8.102;2022-07-12T11:49:01;0.93;;;0.20;;
34212;SDS011;20477;51.390;8.102;2022-07-12T11:51:48;0.40;;;0.38;;
34212;SDS011;20477;51.390;8.102;2022-07-12T11:54:24;2.50;;;0.30;;
34212;SDS011;20477;51.390;8.102;2022-07-12T11:57:09;0.25;;;0.20;;
34212;SDS011;20477;51.390;8.102;2022-07-12T11:59:44;0.38;;;0.38;;
34212;SDS011;20477;51.390;8.102;2022-07-12T12:02:14;2.50;;;0.50;;
34212;SDS011;20477;51.390;8.102;2022-07-12T12:04:52;3.13;;;0.40;;
34212;SDS011;20477;51.390;8.102;2022-07-12T12:07:27;0.20;;;0.20;;
34212;SDS011;20477;51.390;8.102;2022-07-12T12:10:09;3.05;;;0.20;;
34212;SDS011;20477;51.390;8.102;2022-07-12T12:15:23;0.65;;;0.22;;
34212;SDS011;20477;51.390;8.102;2022-07-12T12:20:32;0.28;;;0.28;;
34212;SDS011;20477;51.390;8.102;2022-07-12T12:23:17;0.20;;;0.20;;
34212;SDS011;20477;51.390;8.102;2022-07-12T12:25:45;0.73;;;0.35;;
34212;SDS011;20477;51.390;8.102;2022-07-12T12:28:20;0.73;;;0.20;;
34212;SDS011;20477;51.390;8.102;2022-07-12T12:30:49;2.72;;;0.40;;
34212;SDS011;20477;51.390;8.102;2022-07-12T12:36:12;0.25;;;0.25;;
34212;SDS011;20477;51.390;8.102;2022-07-12T12:38:40;3.20;;;0.20;;
34212;SDS011;20477;51.390;8.102;2022-07-12T12:41:13;0.40;;;0.30;;
34212;SDS011;20477;51.390;8.102;2022-07-12T12:43:48;0.22;;;0.22;;
34212;SDS011;20477;51.390;8.102;2022-07-12T12:46:44;0.75;;;0.17;;
34212;SDS011;20477;51.390;8.102;2022-07-12T12:49:50;1.67;;;0.77;;
34212;SDS011;20477;51.390;8.102;2022-07-12T12:52:23;0.55;;;0.20;;
34212;SDS011;20477;51.390;8.102;2022-07-12T12:54:58;0.68;;;0.30;;
34212;SDS011;20477;51.390;8.102;2022-07-12T12:57:26;0.80;;;0.25;;
34212;SDS011;20477;51.390;8.102;2022-07-12T12:59:53;1.40;;;0.40;;
34212;SDS011;20477;51.390;8.102;2022-07-12T13:02:21;0.85;;;0.20;;
34212;SDS011;20477;51.390;8.102;2022-07-12T13:05:02;0.98;;;0.50;;
34212;SDS011;20477;51.390;8.102;2022-07-12T13:07:48;1.25;;;0.50;;
34212;SDS011;20477;51.390;8.102;2022-07-12T13:10:16;1.30;;;0.38;;
34212;SDS011;20477;51.390;8.102;2022-07-12T13:12:45;1.05;;;0.40;;
34212;SDS011;20477;51.390;8.102;2022-07-12T13:15:13;0.30;;;0.30;;
34212;SDS011;20477;51.390;8.102;2022-07-12T13:17:54;0.63;;;0.30;;
34212;SDS011;20477;51.390;8.102;2022-07-12T13:20:22;0.52;;;0.30;;
34212;SDS011;20477;51.390;8.102;2022-07-12T13:22:52;3.83;;;0.60;;
34212;SDS011;20477;51.390;8.102;2022-07-12T13:25:20;1.65;;;0.20;;
34212;SDS011;20477;51.390;8.102;2022-07-12T13:27:49;2.15;;;0.20;;
34212;SDS011;20477;51.390;8.102;2022-07-12T13:32:50;0.85;;;0.30;;
34212;SDS011;20477;51.390;8.102;2022-07-12T13:35:20;0.63;;;0.40;;
34212;SDS011;20477;51.390;8.102;2022-07-12T13:37:47;0.90;;;0.40;;
34212;SDS011;20477;51.390;8.102;2022-07-12T13:40:24;1.48;;;0.45;;
34212;SDS011;20477;51.390;8.102;2022-07-12T13:42:56;0.85;;;0.40;;
34212;SDS011;20477;51.390;8.102;2022-07-12T13:45:24;1.92;;;0.50;;
34212;SDS011;20477;51.390;8.102;2022-07-12T13:47:59;0.80;;;0.43;;
34212;SDS011;20477;51.390;8.102;2022-07-12T13:50:27;1.90;;;0.57;;
34212;SDS011;20477;51.390;8.102;2022-07-12T13:52:58;1.65;;;0.52;;
34212;SDS011;20477;51.390;8.102;2022-07-12T13:55:27;3.80;;;0.50;;
34212;SDS011;20477;51.390;8.102;2022-07-12T13:58:00;0.63;;;0.38;;
34212;SDS011;20477;51.390;8.102;2022-07-12T14:00:32;2.70;;;0.40;;
34212;SDS011;20477;51.390;8.102;2022-07-12T14:03:02;1.30;;;0.30;;
34212;SDS011;20477;51.390;8.102;2022-07-12T14:05:30;2.33;;;0.60;;
34212;SDS011;20477;51.390;8.102;2022-07-12T14:08:04;0.55;;;0.40;;
34212;SDS011;20477;51.390;8.102;2022-07-12T14:10:31;1.90;;;0.70;;
34212;SDS011;20477;51.390;8.102;2022-07-12T14:13:01;1.40;;;0.35;;
34212;SDS011;20477;51.390;8.102;2022-07-12T14:15:28;0.82;;;0.30;;
34212;SDS011;20477;51.390;8.102;2022-07-12T14:18:05;3.75;;;0.50;;
34212;SDS011;20477;51.390;8.102;2022-07-12T14:20:34;0.32;;;0.20;;
34212;SDS011;20477;51.390;8.102;2022-07-12T14:23:03;2.38;;;0.30;;
34212;SDS011;20477;51.390;8.102;2022-07-12T14:25:34;3.90;;;0.38;;
34212;SDS011;20477;51.390;8.102;2022-07-12T14:28:04;0.93;;;0.52;;
34212;SDS011;20477;51.390;8.102;2022-07-12T14:30:40;1.08;;;0.52;;
34212;SDS011;20477;51.390;8.102;2022-07-12T14:33:13;1.65;;;0.35;;
34212;SDS011;20477;51.390;8.102;2022-07-12T14:35:43;0.80;;;0.43;;
34212;SDS011;20477;51.390;8.102;2022-07-12T14:38:17;3.05;;;0.40;;
34212;SDS011;20477;51.390;8.102;2022-07-12T14:40:52;0.65;;;0.28;;
34212;SDS011;20477;51.390;8.102;2022-07-12T14:43:24;0.30;;;0.30;;
34212;SDS011;20477;51.390;8.102;2022-07-12T14:45:56;2.03;;;0.70;;
34212;SDS011;20477;51.390;8.102;2022-07-12T14:48:32;2.33;;;0.38;;
34212;SDS011;20477;51.390;8.102;2022-07-12T14:51:01;2.78;;;0.75;;
34212;SDS011;20477;51.390;8.102;2022-07-12T14:53:29;3.05;;;0.55;;
34212;SDS011;20477;51.390;8.102;2022-07-12T14:56:01;2.28;;;0.20;;
34212;SDS011;20477;51.390;8.102;2022-07-12T14:58:29;1.50;;;0.30;;
34212;SDS011;20477;51.390;8.102;2022-07-12T15:00:56;1.92;;;0.38;;
34212;SDS011;20477;51.390;8.102;2022-07-12T15:03:28;3.25;;;0.43;;
34212;SDS011;20477;51.390;8.102;2022-07-12T15:06:08;0.73;;;0.40;;
34212;SDS011;20477;51.390;8.102;2022-07-12T15:08:40;0.30;;;0.30;;
34212;SDS011;20477;51.390;8.102;2022-07-12T15:11:19;1.25;;;0.40;;
34212;SDS011;20477;51.390;8.102;2022-07-12T15:13:46;1.20;;;0.30;;
34212;SDS011;20477;51.390;8.102;2022-07-12T15:16:13;2.42;;;0.30;;
34212;SDS011;20477;51.390;8.102;2022-07-12T15:18:41;2.42;;;0.82;;
34212;SDS011;20477;51.390;8.102;2022-07-12T15:21:14;2.13;;;0.40;;
34212;SDS011;20477;51.390;8.102;2022-07-12T15:23:44;2.53;;;0.68;;
34212;SDS011;20477;51.390;8.102;2022-07-12T15:26:11;1.23;;;0.40;;
34212;SDS011;20477;51.390;8.102;2022-07-12T15:29:03;2.80;;;0.38;;
34212;SDS011;20477;51.390;8.102;2022-07-12T15:31:30;2.88;;;0.40;;
34212;SDS011;20477;51.390;8.102;2022-07-12T15:34:01;1.08;;;0.40;;
34212;SDS011;20477;51.390;8.102;2022-07-12T15:36:31;2.25;;;0.60;;
34212;SDS011;20477;51.390;8.102;2022-07-12T15:41:40;0.43;;;0.20;;
34212;SDS011;20477;51.390;8.102;2022-07-12T15:44:12;1.60;;;0.40;;
34212;SDS011;20477;51.390;8.102;2022-07-12T15:46:39;1.02;;;0.40;;
34212;SDS011;20477;51.390;8.102;2022-07-12T15:49:08;0.75;;;0.50;;
34212;SDS011;20477;51.390;8.102;2022-07-12T15:51:36;2.47;;;0.40;;
34212;SDS011;20477;51.390;8.102;2022-07-12T15:54:25;0.85;;;0.45;;
34212;SDS011;20477;51.390;8.102;2022-07-12T15:56:53;2.05;;;0.22;;
34212;SDS011;20477;51.390;8.102;2022-07-12T15:59:29;6.90;;;0.40;;
34212;SDS011;20477;51.390;8.102;2022-07-12T16:01:57;2.17;;;0.35;;
34212;SDS011;20477;51.390;8.102;2022-07-12T16:04:25;1.38;;;0.47;;
34212;SDS011;20477;51.390;8.102;2022-07-12T16:07:03;1.02;;;0.60;;
34212;SDS011;20477;51.390;8.102;2022-07-12T16:09:30;2.22;;;0.65;;